sensor_id;sensor_type;location;lat;lon;timestamp;pressure;altitude;pressure_sealevel;temperature;humidity
64294;BME280;50636;45.596;5.258;2023-03-26T00:00:46;98476.06;;;14.19;52.68
64294;BME280;50636;45.596;5.258;2023-03-26T00:03:16;98481.91;;;14.22;52.70
64294;BME280;50636;45.596;5.258;2023-03-26T00:05:43;98477.41;;;14.10;53.28
64294;BME280;50636;45.596;5.258;2023-03-26T00:08:10;98478.34;;;13.92;52.47
64294;BME280;50636;45.596;5.258;2023-03-26T00:10:38;98476.69;;;13.79;53.45
64294;BME280;50636;45.596;5.258;2023-03-26T00:13:05;98471.78;;;13.83;55.68
64294;BME280;50636;45.596;5.258;2023-03-26T00:15:32;98463.75;;;13.48;56.65
64294;BME280;50636;45.596;5.258;2023-03-26T00:17:59;98464.78;;;13.16;59.10
64294;BME280;50636;45.596;5.258;2023-03-26T00:20:28;98456.50;;;13.13;61.66
64294;BME280;50636;45.596;5.258;2023-03-26T00:22:54;98455.50;;;13.26;61.78
64294;BME280;50636;45.596;5.258;2023-03-26T00:25:21;98450.81;;;13.16;61.19
64294;BME280;50636;45.596;5.258;2023-03-26T00:27:48;98444.88;;;13.02;61.47
64294;BME280;50636;45.596;5.258;2023-03-26T00:30:15;98440.25;;;12.97;61.50
64294;BME280;50636;45.596;5.258;2023-03-26T00:32:41;98431.41;;;13.10;62.35
64294;BME280;50636;45.596;5.258;2023-03-26T00:35:07;98424.91;;;13.43;62.05
64294;BME280;50636;45.596;5.258;2023-03-26T00:37:34;98429.56;;;13.71;61.63
64294;BME280;50636;45.596;5.258;2023-03-26T00:39:59;98434.84;;;13.83;59.84
64294;BME280;50636;45.596;5.258;2023-03-26T00:42:34;98423.25;;;13.72;59.09
64294;BME280;50636;45.596;5.258;2023-03-26T00:45:00;98419.00;;;13.71;59.46
64294;BME280;50636;45.596;5.258;2023-03-26T00:47:27;98427.94;;;13.82;60.32
64294;BME280;50636;45.596;5.258;2023-03-26T00:49:54;98424.41;;;14.00;59.86
64294;BME280;50636;45.596;5.258;2023-03-26T00:52:20;98417.66;;;14.04;57.54
64294;BME280;50636;45.596;5.258;2023-03-26T00:54:46;98420.97;;;13.88;56.69
64294;BME280;50636;45.596;5.258;2023-03-26T00:57:13;98408.91;;;13.68;58.21
64294;BME280;50636;45.596;5.258;2023-03-26T00:59:39;98419.47;;;13.68;59.05
64294;BME280;50636;45.596;5.258;2023-03-26T01:02:08;98430.47;;;13.65;60.27
64294;BME280;50636;45.596;5.258;2023-03-26T01:04:36;98440.81;;;13.78;62.42
64294;BME280;50636;45.596;5.258;2023-03-26T01:07:13;98428.19;;;14.04;61.92
64294;BME280;50636;45.596;5.258;2023-03-26T01:09:55;98420.88;;;14.18;60.04
64294;BME280;50636;45.596;5.258;2023-03-26T01:12:25;98390.69;;;14.14;59.00
64294;BME280;50636;45.596;5.258;2023-03-26T01:14:53;98389.66;;;14.15;58.06
64294;BME280;50636;45.596;5.258;2023-03-26T01:17:22;98397.59;;;14.27;56.45
64294;BME280;50636;45.596;5.258;2023-03-26T01:19:55;98375.84;;;14.48;54.40
64294;BME280;50636;45.596;5.258;2023-03-26T01:22:25;98371.78;;;14.81;52.84
64294;BME280;50636;45.596;5.258;2023-03-26T01:24:51;98362.53;;;15.12;51.43
64294;BME280;50636;45.596;5.258;2023-03-26T01:27:37;98345.59;;;15.42;50.75
64294;BME280;50636;45.596;5.258;2023-03-26T01:33:31;98364.63;;;15.73;48.78
64294;BME280;50636;45.596;5.258;2023-03-26T01:36:07;98372.75;;;15.71;48.38
64294;BME280;50636;45.596;5.258;2023-03-26T01:41:50;98349.28;;;15.92;47.42
64294;BME280;50636;45.596;5.258;2023-03-26T01:44:25;98357.44;;;16.07;46.23
64294;BME280;50636;45.596;5.258;2023-03-26T01:46:53;98345.38;;;16.16;45.89
64294;BME280;50636;45.596;5.258;2023-03-26T01:49:20;98340.00;;;16.11;45.87
64294;BME280;50636;45.596;5.258;2023-03-26T01:51:45;98336.53;;;16.06;45.51
64294;BME280;50636;45.596;5.258;2023-03-26T01:54:19;98329.72;;;15.93;45.64
64294;BME280;50636;45.596;5.258;2023-03-26T02:00:24;98313.41;;;16.01;45.30
64294;BME280;50636;45.596;5.258;2023-03-26T02:08:34;98290.47;;;16.07;44.97
64294;BME280;50636;45.596;5.258;2023-03-26T02:11:09;98281.84;;;16.16;44.39
64294;BME280;50636;45.596;5.258;2023-03-26T02:13:40;98273.72;;;16.23;44.39
64294;BME280;50636;45.596;5.258;2023-03-26T02:16:08;98273.34;;;16.36;43.83
64294;BME280;50636;45.596;5.258;2023-03-26T02:18:35;98238.47;;;16.45;43.29
64294;BME280;50636;45.596;5.258;2023-03-26T02:21:14;98237.25;;;16.57;43.51
64294;BME280;50636;45.596;5.258;2023-03-26T02:23:45;98229.13;;;16.64;42.82
64294;BME280;50636;45.596;5.258;2023-03-26T02:26:13;98213.19;;;16.59;42.69
64294;BME280;50636;45.596;5.258;2023-03-26T02:28:39;98218.16;;;16.55;42.08
64294;BME280;50636;45.596;5.258;2023-03-26T02:31:06;98201.06;;;16.41;42.71
64294;BME280;50636;45.596;5.258;2023-03-26T02:33:36;98209.22;;;16.34;42.96
64294;BME280;50636;45.596;5.258;2023-03-26T02:36:02;98215.78;;;16.27;43.10
64294;BME280;50636;45.596;5.258;2023-03-26T02:38:29;98214.66;;;16.23;42.99
64294;BME280;50636;45.596;5.258;2023-03-26T02:40:58;98221.81;;;16.22;43.24
64294;BME280;50636;45.596;5.258;2023-03-26T02:43:24;98221.53;;;16.24;43.65
64294;BME280;50636;45.596;5.258;2023-03-26T02:45:50;98220.88;;;16.11;46.20
64294;BME280;50636;45.596;5.258;2023-03-26T02:48:16;98216.84;;;15.82;49.14
64294;BME280;50636;45.596;5.258;2023-03-26T02:50:42;98198.97;;;15.33;51.28
64294;BME280;50636;45.596;5.258;2023-03-26T02:53:08;98212.38;;;14.92;53.49
64294;BME280;50636;45.596;5.258;2023-03-26T02:55:34;98206.59;;;14.62;54.56
64294;BME280;50636;45.596;5.258;2023-03-26T02:57:59;98213.78;;;14.37;56.21
64294;BME280;50636;45.596;5.258;2023-03-26T03:00:25;98201.34;;;14.21;58.09
64294;BME280;50636;45.596;5.258;2023-03-26T03:02:51;98183.53;;;13.99;59.88
64294;BME280;50636;45.596;5.258;2023-03-26T03:05:18;98181.97;;;13.87;60.61
64294;BME280;50636;45.596;5.258;2023-03-26T03:07:44;98174.53;;;13.72;61.80
64294;BME280;50636;45.596;5.258;2023-03-26T03:10:12;98176.19;;;13.61;63.17
64294;BME280;50636;45.596;5.258;2023-03-26T03:12:40;98174.69;;;13.65;64.06
64294;BME280;50636;45.596;5.258;2023-03-26T03:15:06;98175.03;;;13.69;64.66
64294;BME280;50636;45.596;5.258;2023-03-26T03:17:32;98180.41;;;13.62;65.43
64294;BME280;50636;45.596;5.258;2023-03-26T03:19:58;98164.72;;;13.55;65.69
64294;BME280;50636;45.596;5.258;2023-03-26T03:22:24;98144.34;;;13.51;66.11
64294;BME280;50636;45.596;5.258;2023-03-26T03:24:50;98138.22;;;13.62;68.08
64294;BME280;50636;45.596;5.258;2023-03-26T03:27:22;98140.03;;;13.73;68.44
64294;BME280;50636;45.596;5.258;2023-03-26T03:29:50;98143.22;;;13.75;68.37
64294;BME280;50636;45.596;5.258;2023-03-26T03:32:18;98134.22;;;13.88;69.48
64294;BME280;50636;45.596;5.258;2023-03-26T03:34:44;98145.50;;;14.12;68.49
64294;BME280;50636;45.596;5.258;2023-03-26T03:37:10;98149.13;;;14.23;65.63
64294;BME280;50636;45.596;5.258;2023-03-26T03:39:35;98141.22;;;14.23;65.21
64294;BME280;50636;45.596;5.258;2023-03-26T03:42:01;98134.75;;;14.31;64.73
64294;BME280;50636;45.596;5.258;2023-03-26T03:44:26;98128.91;;;14.29;64.79
64294;BME280;50636;45.596;5.258;2023-03-26T03:46:52;98110.59;;;14.39;64.43
64294;BME280;50636;45.596;5.258;2023-03-26T03:49:20;98107.16;;;14.55;61.80
64294;BME280;50636;45.596;5.258;2023-03-26T03:51:46;98094.72;;;14.68;60.11
64294;BME280;50636;45.596;5.258;2023-03-26T03:54:11;98096.16;;;14.75;60.60
64294;BME280;50636;45.596;5.258;2023-03-26T03:56:37;98098.06;;;14.80;60.65
64294;BME280;50636;45.596;5.258;2023-03-26T03:59:03;98081.00;;;14.88;59.55
64294;BME280;50636;45.596;5.258;2023-03-26T04:01:29;98080.81;;;14.94;59.54
64294;BME280;50636;45.596;5.258;2023-03-26T04:03:57;98064.63;;;15.08;58.24
64294;BME280;50636;45.596;5.258;2023-03-26T04:06:23;98050.75;;;15.17;57.29
64294;BME280;50636;45.596;5.258;2023-03-26T04:08:50;98042.06;;;15.22;57.99
64294;BME280;50636;45.596;5.258;2023-03-26T04:11:16;98032.41;;;15.33;54.39
64294;BME280;50636;45.596;5.258;2023-03-26T04:13:42;98042.97;;;15.33;56.91
64294;BME280;50636;45.596;5.258;2023-03-26T04:16:08;98037.97;;;15.31;56.84
64294;BME280;50636;45.596;5.258;2023-03-26T04:18:35;98040.88;;;15.35;57.05
64294;BME280;50636;45.596;5.258;2023-03-26T04:21:03;98033.56;;;15.42;55.35
64294;BME280;50636;45.596;5.258;2023-03-26T04:23:30;98033.38;;;15.49;55.12
64294;BME280;50636;45.596;5.258;2023-03-26T04:25:57;98038.97;;;15.52;53.41
64294;BME280;50636;45.596;5.258;2023-03-26T04:28:31;98034.47;;;15.53;52.48
64294;BME280;50636;45.596;5.258;2023-03-26T04:30:59;98030.03;;;15.58;52.94
64294;BME280;50636;45.596;5.258;2023-03-26T04:33:30;98015.34;;;15.68;51.17
64294;BME280;50636;45.596;5.258;2023-03-26T04:35:57;98001.69;;;15.76;50.16
64294;BME280;50636;45.596;5.258;2023-03-26T04:38:28;98011.50;;;15.81;49.46
64294;BME280;50636;45.596;5.258;2023-03-26T04:40:54;98003.34;;;15.87;48.44
64294;BME280;50636;45.596;5.258;2023-03-26T04:43:24;98012.66;;;15.90;46.80
64294;BME280;50636;45.596;5.258;2023-03-26T04:45:51;98016.00;;;15.80;47.64
64294;BME280;50636;45.596;5.258;2023-03-26T04:48:18;98014.94;;;15.81;46.85
64294;BME280;50636;45.596;5.258;2023-03-26T04:50:45;98015.25;;;15.85;46.96
64294;BME280;50636;45.596;5.258;2023-03-26T04:53:15;98022.63;;;15.83;46.40
64294;BME280;50636;45.596;5.258;2023-03-26T04:55:55;98032.00;;;15.68;46.46
64294;BME280;50636;45.596;5.258;2023-03-26T04:58:22;98040.59;;;15.53;46.85
64294;BME280;50636;45.596;5.258;2023-03-26T05:00:54;98031.16;;;15.41;47.32
64294;BME280;50636;45.596;5.258;2023-03-26T05:03:21;98057.25;;;15.32;47.32
64294;BME280;50636;45.596;5.258;2023-03-26T05:05:47;98048.97;;;15.23;49.58
64294;BME280;50636;45.596;5.258;2023-03-26T05:08:15;98048.75;;;15.08;49.66
64294;BME280;50636;45.596;5.258;2023-03-26T05:10:40;98052.41;;;14.85;51.25
64294;BME280;50636;45.596;5.258;2023-03-26T05:13:06;98062.28;;;14.72;51.83
64294;BME280;50636;45.596;5.258;2023-03-26T05:15:31;98058.84;;;14.55;52.62
64294;BME280;50636;45.596;5.258;2023-03-26T05:17:57;98075.78;;;14.25;54.25
64294;BME280;50636;45.596;5.258;2023-03-26T05:20:27;98061.19;;;13.89;57.40
64294;BME280;50636;45.596;5.258;2023-03-26T05:22:54;98012.94;;;13.59;59.25
64294;BME280;50636;45.596;5.258;2023-03-26T05:25:21;98035.50;;;13.38;60.96
64294;BME280;50636;45.596;5.258;2023-03-26T05:27:47;98050.06;;;13.06;63.59
64294;BME280;50636;45.596;5.258;2023-03-26T05:30:17;98039.59;;;12.70;65.11
64294;BME280;50636;45.596;5.258;2023-03-26T05:32:45;98044.38;;;12.38;65.90
64294;BME280;50636;45.596;5.258;2023-03-26T05:35:13;98063.03;;;12.36;67.11
64294;BME280;50636;45.596;5.258;2023-03-26T05:37:42;98053.22;;;12.44;67.58
64294;BME280;50636;45.596;5.258;2023-03-26T05:40:09;98066.34;;;12.55;66.63
64294;BME280;50636;45.596;5.258;2023-03-26T05:42:37;98070.81;;;12.55;68.26
64294;BME280;50636;45.596;5.258;2023-03-26T05:45:04;98075.50;;;12.53;67.58
64294;BME280;50636;45.596;5.258;2023-03-26T05:47:30;98088.69;;;12.53;68.18
64294;BME280;50636;45.596;5.258;2023-03-26T05:49:56;98076.78;;;12.50;69.39
64294;BME280;50636;45.596;5.258;2023-03-26T05:52:22;98055.25;;;12.53;68.30
64294;BME280;50636;45.596;5.258;2023-03-26T05:54:47;98064.06;;;12.47;70.01
64294;BME280;50636;45.596;5.258;2023-03-26T05:57:13;98070.94;;;12.48;69.52
64294;BME280;50636;45.596;5.258;2023-03-26T05:59:38;98082.63;;;12.64;70.27
64294;BME280;50636;45.596;5.258;2023-03-26T06:02:04;98088.69;;;12.76;70.82
64294;BME280;50636;45.596;5.258;2023-03-26T06:04:30;98104.16;;;12.73;68.89
64294;BME280;50636;45.596;5.258;2023-03-26T06:06:56;98075.41;;;12.59;69.72
64294;BME280;50636;45.596;5.258;2023-03-26T06:09:22;98087.66;;;12.54;70.27
64294;BME280;50636;45.596;5.258;2023-03-26T06:11:48;98117.38;;;12.43;70.91
64294;BME280;50636;45.596;5.258;2023-03-26T06:14:14;98097.34;;;12.30;72.82
64294;BME280;50636;45.596;5.258;2023-03-26T06:16:39;98064.38;;;12.27;73.68
64294;BME280;50636;45.596;5.258;2023-03-26T06:19:05;98079.94;;;12.29;74.34
64294;BME280;50636;45.596;5.258;2023-03-26T06:21:30;98080.09;;;12.34;74.46
64294;BME280;50636;45.596;5.258;2023-03-26T06:23:56;98110.84;;;12.33;75.05
64294;BME280;50636;45.596;5.258;2023-03-26T06:26:22;98117.81;;;12.28;73.26
64294;BME280;50636;45.596;5.258;2023-03-26T06:28:48;98124.34;;;12.37;74.05
64294;BME280;50636;45.596;5.258;2023-03-26T06:31:13;98122.66;;;12.43;72.80
64294;BME280;50636;45.596;5.258;2023-03-26T06:33:41;98108.69;;;12.42;73.56
64294;BME280;50636;45.596;5.258;2023-03-26T06:36:07;98111.56;;;12.52;73.54
64294;BME280;50636;45.596;5.258;2023-03-26T06:38:33;98098.75;;;12.56;72.33
64294;BME280;50636;45.596;5.258;2023-03-26T06:41:03;98085.13;;;12.47;73.63
64294;BME280;50636;45.596;5.258;2023-03-26T06:43:29;98140.47;;;12.29;74.81
64294;BME280;50636;45.596;5.258;2023-03-26T06:46:01;98128.41;;;12.09;76.74
64294;BME280;50636;45.596;5.258;2023-03-26T06:48:28;98121.84;;;12.00;78.42
64294;BME280;50636;45.596;5.258;2023-03-26T06:50:53;98131.44;;;11.94;77.94
64294;BME280;50636;45.596;5.258;2023-03-26T06:53:19;98139.38;;;11.88;80.60
64294;BME280;50636;45.596;5.258;2023-03-26T06:55:45;98136.59;;;11.83;81.35
64294;BME280;50636;45.596;5.258;2023-03-26T06:58:12;98153.72;;;11.73;83.84
64294;BME280;50636;45.596;5.258;2023-03-26T07:00:38;98134.44;;;11.61;85.49
64294;BME280;50636;45.596;5.258;2023-03-26T07:03:04;98127.72;;;11.47;86.27
64294;BME280;50636;45.596;5.258;2023-03-26T07:05:30;98133.44;;;11.44;87.71
64294;BME280;50636;45.596;5.258;2023-03-26T07:07:56;98140.06;;;11.46;89.56
64294;BME280;50636;45.596;5.258;2023-03-26T07:10:22;98135.75;;;11.52;89.64
64294;BME280;50636;45.596;5.258;2023-03-26T07:12:48;98132.47;;;11.56;90.83
64294;BME280;50636;45.596;5.258;2023-03-26T07:15:13;98130.94;;;11.49;90.64
64294;BME280;50636;45.596;5.258;2023-03-26T07:17:39;98150.00;;;11.44;91.39
64294;BME280;50636;45.596;5.258;2023-03-26T07:20:06;98113.66;;;11.41;91.78
64294;BME280;50636;45.596;5.258;2023-03-26T07:22:33;98091.88;;;11.52;92.97
64294;BME280;50636;45.596;5.258;2023-03-26T07:24:59;98114.59;;;11.65;93.38
64294;BME280;50636;45.596;5.258;2023-03-26T07:33:00;98103.06;;;11.96;94.19
64294;BME280;50636;45.596;5.258;2023-03-26T07:38:21;98091.13;;;12.12;92.30
64294;BME280;50636;45.596;5.258;2023-03-26T07:41:01;98079.59;;;12.13;91.64
64294;BME280;50636;45.596;5.258;2023-03-26T07:45:55;98084.84;;;12.25;90.94
64294;BME280;50636;45.596;5.258;2023-03-26T07:48:28;98082.38;;;12.42;90.25
64294;BME280;50636;45.596;5.258;2023-03-26T07:50:56;98076.66;;;12.57;89.17
64294;BME280;50636;45.596;5.258;2023-03-26T07:53:22;98075.31;;;12.78;89.49
64294;BME280;50636;45.596;5.258;2023-03-26T07:56:04;98079.66;;;12.96;87.26
64294;BME280;50636;45.596;5.258;2023-03-26T07:59:09;98058.44;;;13.03;83.74
64294;BME280;50636;45.596;5.258;2023-03-26T08:16:26;98059.47;;;13.02;80.93
64294;BME280;50636;45.596;5.258;2023-03-26T08:21:57;98072.84;;;13.12;79.54
64294;BME280;50636;45.596;5.258;2023-03-26T08:24:39;98068.97;;;13.26;77.39
64294;BME280;50636;45.596;5.258;2023-03-26T08:32:33;98075.66;;;13.57;75.72
64294;BME280;50636;45.596;5.258;2023-03-26T08:34:59;98079.78;;;13.53;75.00
64294;BME280;50636;45.596;5.258;2023-03-26T08:37:25;98083.69;;;13.51;74.29
64294;BME280;50636;45.596;5.258;2023-03-26T08:39:52;98079.56;;;13.55;74.88
64294;BME280;50636;45.596;5.258;2023-03-26T08:47:56;98083.41;;;13.64;72.59
64294;BME280;50636;45.596;5.258;2023-03-26T09:03:55;98079.06;;;14.15;73.97
64294;BME280;50636;45.596;5.258;2023-03-26T09:10:08;98066.63;;;14.62;73.41
64294;BME280;50636;45.596;5.258;2023-03-26T09:21:16;98089.25;;;14.74;68.40
64294;BME280;50636;45.596;5.258;2023-03-26T09:24:06;98084.16;;;14.68;65.60
64294;BME280;50636;45.596;5.258;2023-03-26T09:29:45;98084.69;;;14.70;64.22
64294;BME280;50636;45.596;5.258;2023-03-26T09:35:41;98119.41;;;14.78;63.39
64294;BME280;50636;45.596;5.258;2023-03-26T09:46:41;98101.41;;;16.94;61.43
64294;BME280;50636;45.596;5.258;2023-03-26T09:52:15;98086.22;;;16.85;57.19
64294;BME280;50636;45.596;5.258;2023-03-26T09:55:05;98101.00;;;16.43;56.34
64294;BME280;50636;45.596;5.258;2023-03-26T09:58:06;98101.59;;;16.23;58.47
64294;BME280;50636;45.596;5.258;2023-03-26T10:06:59;98110.13;;;15.98;59.75
64294;BME280;50636;45.596;5.258;2023-03-26T10:12:53;98079.00;;;15.83;61.74
64294;BME280;50636;45.596;5.258;2023-03-26T10:18:58;98106.72;;;15.75;62.22
64294;BME280;50636;45.596;5.258;2023-03-26T10:36:01;98100.66;;;16.72;58.03
64294;BME280;50636;45.596;5.258;2023-03-26T10:41:53;98086.38;;;16.78;57.10
64294;BME280;50636;45.596;5.258;2023-03-26T10:44:31;98095.47;;;16.50;57.50
64294;BME280;50636;45.596;5.258;2023-03-26T10:49:53;98089.25;;;16.66;58.17
64294;BME280;50636;45.596;5.258;2023-03-26T10:52:33;98087.72;;;16.75;57.69
64294;BME280;50636;45.596;5.258;2023-03-26T10:55:27;98082.34;;;16.65;57.05
64294;BME280;50636;45.596;5.258;2023-03-26T10:58:07;98091.91;;;16.66;58.12
64294;BME280;50636;45.596;5.258;2023-03-26T11:00:49;98085.44;;;16.89;57.88
64294;BME280;50636;45.596;5.258;2023-03-26T11:08:35;98083.28;;;17.29;55.43
64294;BME280;50636;45.596;5.258;2023-03-26T11:11:47;98059.72;;;17.43;54.13
64294;BME280;50636;45.596;5.258;2023-03-26T11:14:29;98078.22;;;18.16;54.26
64294;BME280;50636;45.596;5.258;2023-03-26T11:19:40;98066.06;;;22.00;45.87
64294;BME280;50636;45.596;5.258;2023-03-26T11:31:23;98043.63;;;22.80;40.17
64294;BME280;50636;45.596;5.258;2023-03-26T11:33:55;98041.69;;;22.53;40.92
64294;BME280;50636;45.596;5.258;2023-03-26T11:36:27;98025.88;;;22.57;39.90
64294;BME280;50636;45.596;5.258;2023-03-26T11:38:57;98045.03;;;22.12;40.21
64294;BME280;50636;45.596;5.258;2023-03-26T11:41:26;98032.59;;;21.69;40.39
64294;BME280;50636;45.596;5.258;2023-03-26T11:46:22;98016.16;;;21.95;40.90
64294;BME280;50636;45.596;5.258;2023-03-26T11:48:58;97996.25;;;22.81;39.62
64294;BME280;50636;45.596;5.258;2023-03-26T11:51:35;97987.06;;;23.51;39.08
64294;BME280;50636;45.596;5.258;2023-03-26T11:54:02;97983.19;;;23.57;37.41
64294;BME280;50636;45.596;5.258;2023-03-26T12:02:29;97987.13;;;24.19;32.88
64294;BME280;50636;45.596;5.258;2023-03-26T12:05:20;97970.03;;;23.69;32.19
64294;BME280;50636;45.596;5.258;2023-03-26T12:07:55;98002.97;;;22.50;33.60
64294;BME280;50636;45.596;5.258;2023-03-26T12:10:35;98010.03;;;21.57;35.55
64294;BME280;50636;45.596;5.258;2023-03-26T12:13:24;98011.44;;;21.11;36.29
64294;BME280;50636;45.596;5.258;2023-03-26T12:16:00;98028.22;;;20.58;39.16
64294;BME280;50636;45.596;5.258;2023-03-26T12:18:29;98015.53;;;19.31;39.88
64294;BME280;50636;45.596;5.258;2023-03-26T12:21:10;98083.25;;;18.07;44.18
64294;BME280;50636;45.596;5.258;2023-03-26T12:23:58;98095.56;;;16.97;52.06
64294;BME280;50636;45.596;5.258;2023-03-26T12:26:42;98134.16;;;14.12;59.77
64294;BME280;50636;45.596;5.258;2023-03-26T12:29:16;98141.13;;;13.02;67.26
64294;BME280;50636;45.596;5.258;2023-03-26T12:31:56;98146.41;;;13.02;69.50
64294;BME280;50636;45.596;5.258;2023-03-26T12:34:31;98141.72;;;13.39;72.09
64294;BME280;50636;45.596;5.258;2023-03-26T12:37:00;98128.84;;;13.95;70.17
64294;BME280;50636;45.596;5.258;2023-03-26T12:39:41;98128.56;;;14.71;70.34
64294;BME280;50636;45.596;5.258;2023-03-26T12:42:25;98102.31;;;15.42;68.86
64294;BME280;50636;45.596;5.258;2023-03-26T12:44:52;98087.41;;;16.02;67.98
64294;BME280;50636;45.596;5.258;2023-03-26T12:47:24;98080.25;;;16.67;65.24
64294;BME280;50636;45.596;5.258;2023-03-26T12:49:52;98071.50;;;17.09;62.78
64294;BME280;50636;45.596;5.258;2023-03-26T12:52:35;98057.84;;;17.38;61.74
64294;BME280;50636;45.596;5.258;2023-03-26T12:58:54;98056.41;;;17.83;60.67
64294;BME280;50636;45.596;5.258;2023-03-26T13:15:51;98029.09;;;21.50;42.53
64294;BME280;50636;45.596;5.258;2023-03-26T13:18:26;98037.78;;;22.31;41.11
64294;BME280;50636;45.596;5.258;2023-03-26T13:21:29;98046.00;;;22.96;39.75
64294;BME280;50636;45.596;5.258;2023-03-26T13:27:12;98061.25;;;23.64;38.19
64294;BME280;50636;45.596;5.258;2023-03-26T13:33:02;98037.19;;;24.09;33.68
64294;BME280;50636;45.596;5.258;2023-03-26T13:35:54;98066.88;;;23.12;36.09
64294;BME280;50636;45.596;5.258;2023-03-26T13:38:45;98054.25;;;22.39;34.88
64294;BME280;50636;45.596;5.258;2023-03-26T13:41:21;98046.56;;;21.80;34.68
64294;BME280;50636;45.596;5.258;2023-03-26T13:44:23;98043.84;;;21.42;35.52
64294;BME280;50636;45.596;5.258;2023-03-26T13:46:59;98045.03;;;21.12;33.73
64294;BME280;50636;45.596;5.258;2023-03-26T13:49:37;98043.63;;;20.66;33.94
64294;BME280;50636;45.596;5.258;2023-03-26T13:52:17;98039.22;;;20.51;34.64
64294;BME280;50636;45.596;5.258;2023-03-26T13:54:50;98040.56;;;20.20;34.31
64294;BME280;50636;45.596;5.258;2023-03-26T14:03:24;98019.59;;;19.73;34.09
64294;BME280;50636;45.596;5.258;2023-03-26T14:05:54;98038.56;;;19.56;35.32
64294;BME280;50636;45.596;5.258;2023-03-26T14:08:29;98032.22;;;19.52;35.49
64294;BME280;50636;45.596;5.258;2023-03-26T14:11:06;98035.03;;;19.77;34.58
64294;BME280;50636;45.596;5.258;2023-03-26T14:13:45;98027.06;;;19.71;35.26
64294;BME280;50636;45.596;5.258;2023-03-26T14:16:38;98027.69;;;19.98;35.57
64294;BME280;50636;45.596;5.258;2023-03-26T14:19:37;98032.59;;;20.49;34.90
64294;BME280;50636;45.596;5.258;2023-03-26T14:34:29;97998.34;;;21.33;33.95
64294;BME280;50636;45.596;5.258;2023-03-26T14:37:22;98000.31;;;21.23;33.49
64294;BME280;50636;45.596;5.258;2023-03-26T14:45:51;97984.00;;;20.57;33.50
64294;BME280;50636;45.596;5.258;2023-03-26T14:54:04;97991.72;;;21.50;31.16
64294;BME280;50636;45.596;5.258;2023-03-26T15:10:53;97984.69;;;19.30;30.30
64294;BME280;50636;45.596;5.258;2023-03-26T15:13:41;97978.88;;;19.23;30.19
64294;BME280;50636;45.596;5.258;2023-03-26T15:33:37;97958.47;;;19.08;28.43
64294;BME280;50636;45.596;5.258;2023-03-26T15:41:51;97949.97;;;19.06;29.44
64294;BME280;50636;45.596;5.258;2023-03-26T15:44:41;97940.75;;;18.83;30.80
64294;BME280;50636;45.596;5.258;2023-03-26T15:47:47;97931.22;;;18.67;30.15
64294;BME280;50636;45.596;5.258;2023-03-26T15:53:52;97939.53;;;18.40;31.12
64294;BME280;50636;45.596;5.258;2023-03-26T15:56:12;97923.88;;;18.33;31.68
64294;BME280;50636;45.596;5.258;2023-03-26T16:01:49;97926.03;;;17.69;31.88
64294;BME280;50636;45.596;5.258;2023-03-26T16:04:54;97911.44;;;17.46;33.18
64294;BME280;50636;45.596;5.258;2023-03-26T16:08:01;97916.50;;;17.63;33.52
64294;BME280;50636;45.596;5.258;2023-03-26T16:10:49;97905.63;;;17.90;33.60
64294;BME280;50636;45.596;5.258;2023-03-26T16:15:55;97890.47;;;17.75;32.89
64294;BME280;50636;45.596;5.258;2023-03-26T16:18:40;97897.91;;;17.68;33.38
64294;BME280;50636;45.596;5.258;2023-03-26T16:24:10;97890.50;;;18.01;32.94
64294;BME280;50636;45.596;5.258;2023-03-26T16:29:26;97888.28;;;18.34;33.08
64294;BME280;50636;45.596;5.258;2023-03-26T16:32:13;97868.06;;;18.43;32.96
64294;BME280;50636;45.596;5.258;2023-03-26T16:34:41;97862.22;;;18.46;36.33
64294;BME280;50636;45.596;5.258;2023-03-26T16:48:30;97838.19;;;17.86;34.75
64294;BME280;50636;45.596;5.258;2023-03-26T17:01:37;97813.28;;;17.21;33.67
64294;BME280;50636;45.596;5.258;2023-03-26T17:04:16;97808.25;;;17.09;33.40
64294;BME280;50636;45.596;5.258;2023-03-26T17:07:07;97808.50;;;17.07;33.76
64294;BME280;50636;45.596;5.258;2023-03-26T17:12:32;97803.44;;;16.85;34.06
64294;BME280;50636;45.596;5.258;2023-03-26T17:15:09;97807.13;;;16.79;34.53
64294;BME280;50636;45.596;5.258;2023-03-26T17:20:56;97804.94;;;16.66;34.18
64294;BME280;50636;45.596;5.258;2023-03-26T17:23:31;97807.28;;;16.52;34.42
64294;BME280;50636;45.596;5.258;2023-03-26T17:42:29;97788.72;;;15.78;37.67
64294;BME280;50636;45.596;5.258;2023-03-26T17:45:15;97781.84;;;15.77;38.56
64294;BME280;50636;45.596;5.258;2023-03-26T17:47:50;97775.75;;;15.77;40.85
64294;BME280;50636;45.596;5.258;2023-03-26T17:50:34;97769.75;;;15.92;40.42
64294;BME280;50636;45.596;5.258;2023-03-26T17:53:27;97778.28;;;16.04;43.04
64294;BME280;50636;45.596;5.258;2023-03-26T17:55:59;97780.28;;;15.82;45.70
64294;BME280;50636;45.596;5.258;2023-03-26T17:58:35;97786.09;;;15.46;46.96
64294;BME280;50636;45.596;5.258;2023-03-26T18:01:25;97795.91;;;14.86;50.02
64294;BME280;50636;45.596;5.258;2023-03-26T18:03:55;97799.22;;;14.27;51.82
64294;BME280;50636;45.596;5.258;2023-03-26T18:09:50;97805.69;;;12.50;61.91
64294;BME280;50636;45.596;5.258;2023-03-26T18:18:48;97795.28;;;11.44;70.88
64294;BME280;50636;45.596;5.258;2023-03-26T18:21:31;97800.88;;;11.24;72.00
64294;BME280;50636;45.596;5.258;2023-03-26T18:23:58;97803.22;;;11.02;73.70
64294;BME280;50636;45.596;5.258;2023-03-26T18:26:32;97815.41;;;10.85;75.29
64294;BME280;50636;45.596;5.258;2023-03-26T18:29:31;97816.56;;;10.70;76.64
64294;BME280;50636;45.596;5.258;2023-03-26T18:32:13;97821.28;;;10.50;78.61
64294;BME280;50636;45.596;5.258;2023-03-26T18:34:53;97812.75;;;10.17;78.71
64294;BME280;50636;45.596;5.258;2023-03-26T18:37:32;97810.63;;;9.89;80.76
64294;BME280;50636;45.596;5.258;2023-03-26T18:42:38;97807.53;;;9.55;84.37
64294;BME280;50636;45.596;5.258;2023-03-26T18:45:31;97805.72;;;9.56;85.79
64294;BME280;50636;45.596;5.258;2023-03-26T18:47:58;97824.09;;;9.49;86.84